Colemans Lake, Georgia
Current Conditions -  °F | °C
As of 6:55 AM on Wednesday 28 Jan 2015 (Local Time) from KSBO Reporting Station
Clear Clear  
Wind Chill: 30°   Ceiling: Unl
Heat Index: 30°   Visibility: 10mi
Dew Point: 28°   Wind: 3mph
Humidity: 93%   Direction: 310°NW
Pressure: 30.2"   Gusts: NA
Location:  32.896°N, 82.1972°W
Report Text: KSBO 281155Z AUTO 31003KT 10SM CLR M01/M02 A3020 RMK AO2
Loading
Personal Weather Stations






























Interactive Weather Map New forecast layout! Learn more

10-Day Weather Forecast

Advertisements
Track Severe Weather on mobile